Terminal Aerodrome Forecast
Issued by NWS Missoula, MT

Home | Current Version | Previous Version | Text Only | Print | Product List | Glossary On
Versions: 1 2 3 4 5 6 7 8 9 10 11 12 13 14 15 16
157
FTUS45 KMSO 201734
TAFMSO
TAF
KMSO 201734Z 2018/2118 32014KT P6SM -SHRA BKN040 OVC080
     FM202100 30018G28KT P6SM VCSH OVC050
     FM210200 31009KT P6SM VCSH BKN050=

USA.gov is the U.S. government's official web portal to all federal, state and local government web resources and services.